Theologos P . — SZNB — position and weather

sailwx.info

Track history (hours):
 
Tides and Currents Weather Stations Pressure Air Temp Water Temp Dewpoint Dewpoint Depression Visibility Wind Speed Wind Dir Waves Ship Positions

Theologos P .

Last reported at 2014-Sep-23 01:33 UTC. Time now 2014-Sep-23 02:20 UTC.
Position N 37°28' E 025°20'.

Length 118 m; draft 4.5 m.

Type: Passenger vessel. MMSI: 240521000.

Date/timePositionNaut miles runAvg speedWind from/ knotsBaromVisibWave heightAir tempDewpointWater temp
2014-Sep-23 01:33N 37°28' E 025°20'0 0.0
2014-Sep-23 00:33N 37°28' E 025°20'0 0.0
2014-Sep-22 23:33N 37°28' E 025°20'0 0.0
2014-Sep-22 22:33N 37°28' E 025°20'0 0.0
2014-Sep-22 21:33N 37°28' E 025°20'0 0.0
2014-Sep-22 20:33N 37°28' E 025°20'0 0.0
2014-Sep-22 19:33N 37°28' E 025°20'9 9.2
2014-Sep-22 18:33N 37°32' E 025°09'1515.0
2014-Sep-22 17:33N 37°41' E 024°54'1512.3
2014-Sep-22 16:19N 37°52' E 024°41'1419.0
2014-Sep-22 15:34N 37°55' E 024°23'19 3.0
2014-Sep-22 09:16N 38°01' E 024°01'1318.6
2014-Sep-22 08:33N 37°57' E 024°17'1918.6
2014-Sep-22 07:33N 37°53' E 024°40'1010.0
2014-Sep-22 06:33N 37°46' E 024°49'1919.1
2014-Sep-22 05:33N 37°33' E 025°07'1111.3
2014-Sep-22 04:33N 37°28' E 025°20'0 0.0
2014-Sep-22 03:33N 37°28' E 025°20'0 0.0
2014-Sep-22 02:33N 37°28' E 025°20'0 0.0
2014-Sep-22 01:33N 37°28' E 025°20'0 0.0
2014-Sep-22 00:33N 37°28' E 025°20'0 0.0
2014-Sep-21 23:33N 37°28' E 025°20'0 0.0
2014-Sep-21 22:33N 37°28' E 025°20'0 0.0
2014-Sep-21 21:33N 37°28' E 025°20'0 0.0
2014-Sep-21 20:33N 37°28' E 025°20'0 0.0
2014-Sep-21 19:33N 37°28' E 025°20'9 9.3
2014-Sep-21 18:33N 37°32' E 025°09'1514.7
2014-Sep-21 17:33N 37°42' E 024°55'1814.0
2014-Sep-21 16:17N 37°53' E 024°37'1918.8
2014-Sep-21 15:17N 37°58' E 024°15'2 1.0
2014-Sep-21 13:22N 37°58' E 024°12'1919.3
2014-Sep-21 12:23N 37°54' E 024°36'2614.3
2014-Sep-21 10:33N 37°37' E 025°01'9 9.1
2014-Sep-21 09:33N 37°31' E 025°10'8 8.3
2014-Sep-21 08:33N 37°28' E 025°20'0 0.0
2014-Sep-21 07:33N 37°28' E 025°20'0 0.0
2014-Sep-21 06:33N 37°28' E 025°20'0 0.0
2014-Sep-21 05:33N 37°28' E 025°20'0 0.0
2014-Sep-21 04:34N 37°28' E 025°20'0 0.0
2014-Sep-21 03:33N 37°28' E 025°20'0 0.0
2014-Sep-21 02:33N 37°28' E 025°20'0 0.0
2014-Sep-21 01:33N 37°28' E 025°20'0 0.0
2014-Sep-21 00:33N 37°28' E 025°20'0 0.0
2014-Sep-20 23:33N 37°28' E 025°20'0 0.0
2014-Sep-20 22:33N 37°28' E 025°20'0 0.0
2014-Sep-20 21:33N 37°28' E 025°20'0 0.0
2014-Sep-20 20:33N 37°28' E 025°20'0 0.0
2014-Sep-20 19:33N 37°28' E 025°20'9 9.4
2014-Sep-20 18:33N 37°32' E 025°09'1514.8
2014-Sep-20 17:33N 37°42' E 024°55'4411.1
2014-Sep-20 13:33N 38°01' E 024°04'2219.4
2014-Sep-20 12:26N 37°54' E 024°30'2714.6
2014-Sep-20 10:33N 37°38' E 024°59'1413.5
2014-Sep-20 09:33N 37°30' E 025°12'3 2.7
2014-Sep-20 08:33N 37°29' E 025°15'1111.4
2014-Sep-20 07:33N 37°35' E 025°03'3115.3
2014-Sep-20 05:32N 37°54' E 024°32'2118.7
2014-Sep-20 04:23N 38°00' E 024°06'6 1.1
2014-Sep-19 23:24N 37°58' E 024°13'3918.2
2014-Sep-19 21:16N 37°39' E 024°55'1318.8
2014-Sep-19 20:33N 37°31' E 025°09'9 8.9
2014-Sep-19 19:33N 37°28' E 025°19'9 9.2
2014-Sep-19 18:33N 37°32' E 025°09'61 6.5
2014-Sep-19 09:12N 38°01' E 024°01'2019.3
2014-Sep-19 08:10N 37°55' E 024°26'2814.1
2014-Sep-19 06:09N 37°40' E 024°56'1118.7
2014-Sep-19 05:33N 37°33' E 025°07'1111.3
2014-Sep-19 04:33N 37°28' E 025°20'0 0.0
2014-Sep-19 03:33N 37°28' E 025°20'0 0.0
2014-Sep-19 02:33N 37°28' E 025°20'0 0.0
2014-Sep-19 01:33N 37°28' E 025°20'0 0.0
2014-Sep-19 00:33N 37°28' E 025°20'0 0.0
2014-Sep-18 23:33N 37°28' E 025°20'0 0.0
2014-Sep-18 22:33N 37°28' E 025°20'0 0.0
2014-Sep-18 21:33N 37°28' E 025°20'0 0.0
2014-Sep-18 20:33N 37°28' E 025°20'0 0.0
2014-Sep-18 19:33N 37°28' E 025°20'9 9.2
2014-Sep-18 18:33N 37°32' E 025°09'60 6.3
2014-Sep-18 09:04N 38°01' E 024°03'4515.9
2014-Sep-18 06:13N 37°41' E 024°55'1319.0
2014-Sep-18 05:33N 37°33' E 025°07'1111.3
2014-Sep-18 04:33N 37°28' E 025°20'0 0.0
2014-Sep-18 03:33N 37°28' E 025°20'0 0.0
2014-Sep-18 02:33N 37°28' E 025°20'0 0.0
2014-Sep-18 01:34N 37°28' E 025°20'0 0.0
2014-Sep-18 00:34N 37°28' E 025°20'0 0.0
2014-Sep-17 23:33N 37°28' E 025°20'0 0.0
2014-Sep-17 22:33N 37°28' E 025°20'0 0.0
2014-Sep-17 21:33N 37°28' E 025°20'0 0.0
2014-Sep-17 20:33N 37°28' E 025°20'0 0.0
2014-Sep-17 19:33N 37°28' E 025°20'9 9.0
2014-Sep-17 18:32N 37°32' E 025°09'13 1.1
2014-Sep-17 06:11N 37°40' E 024°56'1318.2
2014-Sep-17 05:27N 37°32' E 025°09'1010.5
2014-Sep-17 04:33N 37°28' E 025°20'0 0.0
2014-Sep-17 03:33N 37°28' E 025°20'0 0.0
2014-Sep-17 02:33N 37°28' E 025°20'0 0.0
2014-Sep-17 01:33N 37°28' E 025°20'0 0.0
2014-Sep-17 00:33N 37°28' E 025°20'0 0.0
2014-Sep-16 23:33N 37°28' E 025°20'0 0.0
2014-Sep-16 22:33N 37°28' E 025°20'0 0.0
2014-Sep-16 21:33N 37°28' E 025°20'0 0.0
2014-Sep-16 20:33N 37°28' E 025°20'0 0.0
2014-Sep-16 19:33N 37°28' E 025°20'9 9.3
2014-Sep-16 18:33N 37°32' E 025°09'1616.0
2014-Sep-16 17:33N 37°42' E 024°54'1813.0
2014-Sep-16 16:11N 37°53' E 024°36'27 3.9
2014-Sep-16 09:07N 38°01' E 024°03'1919.0
2014-Sep-16 08:08N 37°55' E 024°25'2213.5
2014-Sep-16 06:30N 37°45' E 024°50'1819.2
2014-Sep-16 05:33N 37°33' E 025°07'1111.4
2014-Sep-16 04:33N 37°28' E 025°20'0 0.0
2014-Sep-16 03:33N 37°28' E 025°20'0 0.0
2014-Sep-16 02:33N 37°28' E 025°20'0 0.0
2014-Sep-16 01:33N 37°28' E 025°20'0 0.0
2014-Sep-16 00:33N 37°28' E 025°20'0 0.0
2014-Sep-15 23:33N 37°28' E 025°20'0 0.0
2014-Sep-15 22:33N 37°28' E 025°20'0 0.0
2014-Sep-15 21:33N 37°28' E 025°20'0 0.0
2014-Sep-15 20:33N 37°28' E 025°20'0 0.0
2014-Sep-15 19:33N 37°28' E 025°20'9 9.2
2014-Sep-15 18:33N 37°32' E 025°09'1515.3
2014-Sep-15 17:33N 37°42' E 024°54'1612.4
2014-Sep-15 16:18N 37°53' E 024°40'1718.4
2014-Sep-15 15:22N 37°57' E 024°19'15 2.5
2014-Sep-15 09:14N 38°01' E 024°01'1518.2
2014-Sep-15 08:26N 37°57' E 024°18'3114.7
2014-Sep-15 06:21N 37°43' E 024°53'1519.1
2014-Sep-15 05:33N 37°33' E 025°07'1111.2
2014-Sep-15 04:33N 37°28' E 025°20'0 0.0
2014-Sep-15 03:33N 37°28' E 025°20'0 0.0
2014-Sep-15 02:34N 37°28' E 025°20'0 0.0
2014-Sep-15 01:33N 37°28' E 025°20'0 0.0
2014-Sep-15 00:34N 37°28' E 025°20'4 3.6
2014-Sep-14 23:34N 37°29' E 025°15'1414.2
2014-Sep-14 22:33N 37°36' E 024°59'1919.2
2014-Sep-14 21:33N 37°45' E 024°38'24 7.4
2014-Sep-14 18:22N 37°58' E 024°13'7 1.5
2014-Sep-14 13:33N 38°01' E 024°05'2119.0
2014-Sep-14 12:26N 37°54' E 024°30'2613.9
2014-Sep-14 10:33N 37°39' E 024°57'1212.1
2014-Sep-14 09:34N 37°32' E 025°09'9 9.3
2014-Sep-14 08:33N 37°28' E 025°20'0 0.0
2014-Sep-14 07:33N 37°28' E 025°20'0 0.0
2014-Sep-14 06:33N 37°28' E 025°20'0 0.0
2014-Sep-14 05:33N 37°28' E 025°20'0 0.0
2014-Sep-14 04:33N 37°28' E 025°20'0 0.0
2014-Sep-14 03:33N 37°28' E 025°20'0 0.0
2014-Sep-14 02:33N 37°28' E 025°20'0 0.0
2014-Sep-14 01:33N 37°28' E 025°20'0 0.0
2014-Sep-13 21:33N 37°28' E 025°20'0 0.0
2014-Sep-13 20:33N 37°28' E 025°20'0 0.0
2014-Sep-13 19:34N 37°28' E 025°20'9 9.2
2014-Sep-13 18:33N 37°32' E 025°09'1615.7
2014-Sep-13 17:32N 37°42' E 024°54'2914.5
2014-Sep-13 15:32N 37°56' E 024°22'12 6.1
2014-Sep-13 13:33N 38°00' E 024°07'1919.1
2014-Sep-13 12:33N 37°54' E 024°30'3014.9
2014-Sep-13 10:34N 37°37' E 025°01'1212.4
2014-Sep-13 09:33N 37°30' E 025°14'1 1.1
2014-Sep-13 08:33N 37°29' E 025°15'1110.9
2014-Sep-13 07:33N 37°35' E 025°04'2119.2
2014-Sep-13 06:28N 37°50' E 024°45'1011.1
2014-Sep-13 05:33N 37°54' E 024°33'1919.1
2014-Sep-13 04:33N 37°59' E 024°10'  
Track history (hours):
 
Tides and Currents Weather Stations Pressure Air Temp Water Temp Dewpoint Dewpoint Depression Visibility Wind Speed Wind Dir Waves Ship Positions

Theologos P .

Last reported at 2014-Sep-23 01:33 UTC. Time now 2014-Sep-23 02:20 UTC.
Position N 37°28' E 025°20'.

Length 118 m; draft 4.5 m.

Type: Passenger vessel. MMSI: 240521000.

Date/timePositionNaut miles runAvg speedWind from/ knotsBaromVisibWave heightAir tempDewpointWater temp
2014-Sep-23 01:33N 37°28' E 025°20'0 0.0
2014-Sep-23 00:33N 37°28' E 025°20'0 0.0
2014-Sep-22 23:33N 37°28' E 025°20'0 0.0
2014-Sep-22 22:33N 37°28' E 025°20'0 0.0
2014-Sep-22 21:33N 37°28' E 025°20'0 0.0
2014-Sep-22 20:33N 37°28' E 025°20'0 0.0
2014-Sep-22 19:33N 37°28' E 025°20'9 9.2
2014-Sep-22 18:33N 37°32' E 025°09'1515.0
2014-Sep-22 17:33N 37°41' E 024°54'1512.3
2014-Sep-22 16:19N 37°52' E 024°41'1419.0
2014-Sep-22 15:34N 37°55' E 024°23'19 3.0
2014-Sep-22 09:16N 38°01' E 024°01'1318.6
2014-Sep-22 08:33N 37°57' E 024°17'1918.6
2014-Sep-22 07:33N 37°53' E 024°40'1010.0
2014-Sep-22 06:33N 37°46' E 024°49'1919.1
2014-Sep-22 05:33N 37°33' E 025°07'1111.3
2014-Sep-22 04:33N 37°28' E 025°20'0 0.0
2014-Sep-22 03:33N 37°28' E 025°20'0 0.0
2014-Sep-22 02:33N 37°28' E 025°20'0 0.0
2014-Sep-22 01:33N 37°28' E 025°20'0 0.0
2014-Sep-22 00:33N 37°28' E 025°20'0 0.0
2014-Sep-21 23:33N 37°28' E 025°20'0 0.0
2014-Sep-21 22:33N 37°28' E 025°20'0 0.0
2014-Sep-21 21:33N 37°28' E 025°20'0 0.0
2014-Sep-21 20:33N 37°28' E 025°20'0 0.0
2014-Sep-21 19:33N 37°28' E 025°20'9 9.3
2014-Sep-21 18:33N 37°32' E 025°09'1514.7
2014-Sep-21 17:33N 37°42' E 024°55'1814.0
2014-Sep-21 16:17N 37°53' E 024°37'1918.8
2014-Sep-21 15:17N 37°58' E 024°15'2 1.0
2014-Sep-21 13:22N 37°58' E 024°12'1919.3
2014-Sep-21 12:23N 37°54' E 024°36'2614.3
2014-Sep-21 10:33N 37°37' E 025°01'9 9.1
2014-Sep-21 09:33N 37°31' E 025°10'8 8.3
2014-Sep-21 08:33N 37°28' E 025°20'0 0.0
2014-Sep-21 07:33N 37°28' E 025°20'0 0.0
2014-Sep-21 06:33N 37°28' E 025°20'0 0.0
2014-Sep-21 05:33N 37°28' E 025°20'0 0.0
2014-Sep-21 04:34N 37°28' E 025°20'0 0.0
2014-Sep-21 03:33N 37°28' E 025°20'0 0.0
2014-Sep-21 02:33N 37°28' E 025°20'0 0.0
2014-Sep-21 01:33N 37°28' E 025°20'0 0.0
2014-Sep-21 00:33N 37°28' E 025°20'0 0.0
2014-Sep-20 23:33N 37°28' E 025°20'0 0.0
2014-Sep-20 22:33N 37°28' E 025°20'0 0.0
2014-Sep-20 21:33N 37°28' E 025°20'0 0.0
2014-Sep-20 20:33N 37°28' E 025°20'0 0.0
2014-Sep-20 19:33N 37°28' E 025°20'9 9.4
2014-Sep-20 18:33N 37°32' E 025°09'1514.8
2014-Sep-20 17:33N 37°42' E 024°55'4411.1
2014-Sep-20 13:33N 38°01' E 024°04'2219.4
2014-Sep-20 12:26N 37°54' E 024°30'2714.6
2014-Sep-20 10:33N 37°38' E 024°59'1413.5
2014-Sep-20 09:33N 37°30' E 025°12'3 2.7
2014-Sep-20 08:33N 37°29' E 025°15'1111.4
2014-Sep-20 07:33N 37°35' E 025°03'3115.3
2014-Sep-20 05:32N 37°54' E 024°32'2118.7
2014-Sep-20 04:23N 38°00' E 024°06'6 1.1
2014-Sep-19 23:24N 37°58' E 024°13'3918.2
2014-Sep-19 21:16N 37°39' E 024°55'1318.8
2014-Sep-19 20:33N 37°31' E 025°09'9 8.9
2014-Sep-19 19:33N 37°28' E 025°19'9 9.2
2014-Sep-19 18:33N 37°32' E 025°09'61 6.5
2014-Sep-19 09:12N 38°01' E 024°01'2019.3
2014-Sep-19 08:10N 37°55' E 024°26'2814.1
2014-Sep-19 06:09N 37°40' E 024°56'1118.7
2014-Sep-19 05:33N 37°33' E 025°07'1111.3
2014-Sep-19 04:33N 37°28' E 025°20'0 0.0
2014-Sep-19 03:33N 37°28' E 025°20'0 0.0
2014-Sep-19 02:33N 37°28' E 025°20'0 0.0
2014-Sep-19 01:33N 37°28' E 025°20'0 0.0
2014-Sep-19 00:33N 37°28' E 025°20'0 0.0
2014-Sep-18 23:33N 37°28' E 025°20'0 0.0
2014-Sep-18 22:33N 37°28' E 025°20'0 0.0
2014-Sep-18 21:33N 37°28' E 025°20'0 0.0
2014-Sep-18 20:33N 37°28' E 025°20'0 0.0
2014-Sep-18 19:33N 37°28' E 025°20'9 9.2
2014-Sep-18 18:33N 37°32' E 025°09'60 6.3
2014-Sep-18 09:04N 38°01' E 024°03'4515.9
2014-Sep-18 06:13N 37°41' E 024°55'1319.0
2014-Sep-18 05:33N 37°33' E 025°07'1111.3
2014-Sep-18 04:33N 37°28' E 025°20'0 0.0
2014-Sep-18 03:33N 37°28' E 025°20'0 0.0
2014-Sep-18 02:33N 37°28' E 025°20'0 0.0
2014-Sep-18 01:34N 37°28' E 025°20'0 0.0
2014-Sep-18 00:34N 37°28' E 025°20'0 0.0
2014-Sep-17 23:33N 37°28' E 025°20'0 0.0
2014-Sep-17 22:33N 37°28' E 025°20'0 0.0
2014-Sep-17 21:33N 37°28' E 025°20'0 0.0
2014-Sep-17 20:33N 37°28' E 025°20'0 0.0
2014-Sep-17 19:33N 37°28' E 025°20'9 9.0
2014-Sep-17 18:32N 37°32' E 025°09'13 1.1
2014-Sep-17 06:11N 37°40' E 024°56'1318.2
2014-Sep-17 05:27N 37°32' E 025°09'1010.5
2014-Sep-17 04:33N 37°28' E 025°20'0 0.0
2014-Sep-17 03:33N 37°28' E 025°20'0 0.0
2014-Sep-17 02:33N 37°28' E 025°20'0 0.0
2014-Sep-17 01:33N 37°28' E 025°20'0 0.0
2014-Sep-17 00:33N 37°28' E 025°20'0 0.0
2014-Sep-16 23:33N 37°28' E 025°20'0 0.0
2014-Sep-16 22:33N 37°28' E 025°20'0 0.0
2014-Sep-16 21:33N 37°28' E 025°20'0 0.0
2014-Sep-16 20:33N 37°28' E 025°20'0 0.0
2014-Sep-16 19:33N 37°28' E 025°20'9 9.3
2014-Sep-16 18:33N 37°32' E 025°09'1616.0
2014-Sep-16 17:33N 37°42' E 024°54'1813.0
2014-Sep-16 16:11N 37°53' E 024°36'27 3.9
2014-Sep-16 09:07N 38°01' E 024°03'1919.0
2014-Sep-16 08:08N 37°55' E 024°25'2213.5
2014-Sep-16 06:30N 37°45' E 024°50'1819.2
2014-Sep-16 05:33N 37°33' E 025°07'1111.4
2014-Sep-16 04:33N 37°28' E 025°20'0 0.0
2014-Sep-16 03:33N 37°28' E 025°20'0 0.0
2014-Sep-16 02:33N 37°28' E 025°20'0 0.0
2014-Sep-16 01:33N 37°28' E 025°20'0 0.0
2014-Sep-16 00:33N 37°28' E 025°20'0 0.0
2014-Sep-15 23:33N 37°28' E 025°20'0 0.0
2014-Sep-15 22:33N 37°28' E 025°20'0 0.0
2014-Sep-15 21:33N 37°28' E 025°20'0 0.0
2014-Sep-15 20:33N 37°28' E 025°20'0 0.0
2014-Sep-15 19:33N 37°28' E 025°20'9 9.2
2014-Sep-15 18:33N 37°32' E 025°09'1515.3
2014-Sep-15 17:33N 37°42' E 024°54'1612.4
2014-Sep-15 16:18N 37°53' E 024°40'1718.4
2014-Sep-15 15:22N 37°57' E 024°19'15 2.5
2014-Sep-15 09:14N 38°01' E 024°01'1518.2
2014-Sep-15 08:26N 37°57' E 024°18'3114.7
2014-Sep-15 06:21N 37°43' E 024°53'1519.1
2014-Sep-15 05:33N 37°33' E 025°07'1111.2
2014-Sep-15 04:33N 37°28' E 025°20'0 0.0
2014-Sep-15 03:33N 37°28' E 025°20'0 0.0
2014-Sep-15 02:34N 37°28' E 025°20'0 0.0
2014-Sep-15 01:33N 37°28' E 025°20'0 0.0
2014-Sep-15 00:34N 37°28' E 025°20'4 3.6
2014-Sep-14 23:34N 37°29' E 025°15'1414.2
2014-Sep-14 22:33N 37°36' E 024°59'1919.2
2014-Sep-14 21:33N 37°45' E 024°38'24 7.4
2014-Sep-14 18:22N 37°58' E 024°13'7 1.5
2014-Sep-14 13:33N 38°01' E 024°05'2119.0
2014-Sep-14 12:26N 37°54' E 024°30'2613.9
2014-Sep-14 10:33N 37°39' E 024°57'1212.1
2014-Sep-14 09:34N 37°32' E 025°09'9 9.3
2014-Sep-14 08:33N 37°28' E 025°20'0 0.0
2014-Sep-14 07:33N 37°28' E 025°20'0 0.0
2014-Sep-14 06:33N 37°28' E 025°20'0 0.0
2014-Sep-14 05:33N 37°28' E 025°20'0 0.0
2014-Sep-14 04:33N 37°28' E 025°20'0 0.0
2014-Sep-14 03:33N 37°28' E 025°20'0 0.0
2014-Sep-14 02:33N 37°28' E 025°20'0 0.0
2014-Sep-14 01:33N 37°28' E 025°20'0 0.0
2014-Sep-13 21:33N 37°28' E 025°20'0 0.0
2014-Sep-13 20:33N 37°28' E 025°20'0 0.0
2014-Sep-13 19:34N 37°28' E 025°20'9 9.2
2014-Sep-13 18:33N 37°32' E 025°09'1615.7
2014-Sep-13 17:32N 37°42' E 024°54'2914.5
2014-Sep-13 15:32N 37°56' E 024°22'12 6.1
2014-Sep-13 13:33N 38°00' E 024°07'1919.1
2014-Sep-13 12:33N 37°54' E 024°30'3014.9
2014-Sep-13 10:34N 37°37' E 025°01'1212.4
2014-Sep-13 09:33N 37°30' E 025°14'1 1.1
2014-Sep-13 08:33N 37°29' E 025°15'1110.9
2014-Sep-13 07:33N 37°35' E 025°04'2119.2
2014-Sep-13 06:28N 37°50' E 024°45'1011.1
2014-Sep-13 05:33N 37°54' E 024°33'1919.1
2014-Sep-13 04:33N 37°59' E 024°10'  

Dump ship's entire track history